Time;durP1;ratioP1;P1;durP2;ratioP2;P2;SDS_P1;SDS_P2;PMS_P1;PMS_P2;Temp;Humidity;BMP_temperature;BMP_pressure;BME280_temperature;BME280_humidity;BME280_pressure;Samples;Min_cycle;Max_cycle;Signal;HPM_P1;HPM_P2
2022/05/04 00:02:00;;;;;;;8.83;5.90;;;;;;;;;;4985536;28;20532;-89
2022/05/04 00:05:06;;;;;;;10.10;6.63;;;;;;;;;;4986296;28;20420;-90
2022/05/04 00:08:12;;;;;;;7.40;6.03;;;;;;;;;;4964352;28;20445;-89
2022/05/04 00:11:17;;;;;;;6.77;6.20;;;;;;;;;;4976105;28;20512;-88
2022/05/04 00:14:25;;;;;;;6.63;6.07;;;;;;;;;;4995958;28;20429;-90
2022/05/04 00:17:29;;;;;;;8.97;7.27;;;;;;;;;;4984483;28;20440;-89
2022/05/04 00:20:35;;;;;;;6.67;6.00;;;;;;;;;;4967342;28;20441;-90
2022/05/04 00:23:43;;;;;;;6.57;5.97;;;;;;;;;;4957391;28;20437;-91
2022/05/04 00:32:00;;;;;;;12.20;6.20;;;;;;;;;;4995158;28;20460;-94
2022/05/04 00:42:46;;;;;;;7.40;6.70;;;;;;;;;;4993036;28;20551;-92
2022/05/04 00:45:52;;;;;;;6.90;6.30;;;;;;;;;;4993423;28;20433;-93
2022/05/04 00:48:58;;;;;;;13.33;6.70;;;;;;;;;;4973841;29;20457;-93
2022/05/04 00:52:04;;;;;;;7.00;6.50;;;;;;;;;;4974922;28;21003;-94
2022/05/04 00:55:10;;;;;;;7.10;6.50;;;;;;;;;;4994198;28;20486;-92
2022/05/04 01:01:21;;;;;;;7.03;6.37;;;;;;;;;;4996600;28;20494;-92
2022/05/04 01:04:27;;;;;;;8.47;7.40;;;;;;;;;;4996977;28;20753;-92
2022/05/04 01:07:33;;;;;;;11.03;7.57;;;;;;;;;;4988141;28;20479;-92
2022/05/04 01:10:38;;;;;;;8.23;6.57;;;;;;;;;;4971000;28;20488;-93
2022/05/04 01:13:44;;;;;;;9.73;6.50;;;;;;;;;;4996114;28;20441;-94
2022/05/04 01:16:50;;;;;;;8.07;7.27;;;;;;;;;;4993151;28;20796;-93
2022/05/04 01:19:56;;;;;;;7.07;6.37;;;;;;;;;;4968918;28;20965;-93
2022/05/04 01:23:01;;;;;;;7.00;6.10;;;;;;;;;;4994274;28;20661;-92
2022/05/04 01:26:07;;;;;;;7.67;6.77;;;;;;;;;;4988859;28;20431;-93
2022/05/04 01:29:14;;;;;;;8.00;6.37;;;;;;;;;;4966892;29;20432;-92
2022/05/04 01:32:19;;;;;;;7.87;6.60;;;;;;;;;;4988122;28;20460;-92
2022/05/04 01:35:25;;;;;;;7.03;6.47;;;;;;;;;;4964560;29;20440;-92
2022/05/04 01:38:31;;;;;;;6.60;6.20;;;;;;;;;;4980894;28;20433;-93
2022/05/04 01:44:41;;;;;;;7.00;6.40;;;;;;;;;;4979212;28;20483;-93
2022/05/04 01:47:48;;;;;;;16.00;6.90;;;;;;;;;;4986537;28;20432;-93
2022/05/04 01:50:53;;;;;;;7.00;6.10;;;;;;;;;;4975900;28;20595;-92
2022/05/04 01:53:59;;;;;;;9.80;7.20;;;;;;;;;;4997443;28;20432;-93
2022/05/04 01:57:05;;;;;;;7.10;6.50;;;;;;;;;;4989210;28;20443;-94
2022/05/04 02:00:12;;;;;;;6.60;6.10;;;;;;;;;;4970457;28;20430;-93
2022/05/04 02:03:18;;;;;;;7.23;6.57;;;;;;;;;;4980763;28;20477;-93
2022/05/04 02:06:24;;;;;;;8.37;6.87;;;;;;;;;;4973424;28;20445;-93
2022/05/04 02:09:31;;;;;;;9.13;7.17;;;;;;;;;;4984687;28;20445;-92
2022/05/04 02:12:37;;;;;;;8.43;6.90;;;;;;;;;;4993076;28;20432;-94
2022/05/04 02:15:42;;;;;;;9.90;7.03;;;;;;;;;;4982531;28;20527;-94
2022/05/04 02:18:48;;;;;;;9.33;6.37;;;;;;;;;;4987567;28;20854;-93
2022/05/04 02:21:54;;;;;;;8.13;6.63;;;;;;;;;;5006958;28;20467;-93
2022/05/04 02:25:00;;;;;;;8.23;7.57;;;;;;;;;;4987776;28;20440;-93
2022/05/04 02:28:09;;;;;;;10.50;6.30;;;;;;;;;;4965129;28;20434;-94
2022/05/04 02:31:15;;;;;;;5.83;5.37;;;;;;;;;;4984916;28;20827;-93
2022/05/04 02:34:21;;;;;;;6.60;5.90;;;;;;;;;;4991089;28;20947;-93
2022/05/04 02:40:31;;;;;;;9.17;8.47;;;;;;;;;;4978981;28;20448;-93
2022/05/04 02:43:37;;;;;;;12.60;6.97;;;;;;;;;;4973086;28;20851;-92
2022/05/04 02:46:43;;;;;;;9.23;6.60;;;;;;;;;;4966947;28;20484;-93
2022/05/04 02:49:49;;;;;;;6.77;6.27;;;;;;;;;;4975258;28;20425;-92
2022/05/04 02:52:55;;;;;;;7.47;6.73;;;;;;;;;;4988107;28;20509;-93
2022/05/04 02:56:01;;;;;;;6.70;5.63;;;;;;;;;;4979034;28;20429;-94
2022/05/04 02:59:06;;;;;;;11.47;6.80;;;;;;;;;;4978608;28;20429;-93
2022/05/04 03:02:28;;;;;;;10.20;6.27;;;;;;;;;;4975200;28;20629;-93
2022/05/04 03:05:34;;;;;;;6.07;5.77;;;;;;;;;;4983285;28;20457;-94
2022/05/04 03:08:39;;;;;;;6.97;6.27;;;;;;;;;;4989267;28;20440;-93
2022/05/04 03:11:54;;;;;;;6.60;5.67;;;;;;;;;;4974797;28;20516;-93
2022/05/04 03:15:00;;;;;;;13.83;7.40;;;;;;;;;;4975960;28;20444;-94
2022/05/04 03:18:06;;;;;;;8.37;6.33;;;;;;;;;;4971575;28;20430;-93
2022/05/04 03:21:12;;;;;;;7.60;6.13;;;;;;;;;;4971235;28;20465;-93
2022/05/04 03:24:18;;;;;;;7.13;6.43;;;;;;;;;;4969421;28;20445;-94
2022/05/04 03:27:24;;;;;;;9.23;6.83;;;;;;;;;;4981635;28;20460;-92
2022/05/04 03:30:30;;;;;;;9.10;6.70;;;;;;;;;;4978128;28;20441;-92
2022/05/04 03:33:36;;;;;;;7.60;6.90;;;;;;;;;;4994643;28;20463;-93
2022/05/04 03:39:21;;;;;;;10.10;8.50;;;;;;;;;;5188932;23;20487;-93
2022/05/04 03:42:27;;;;;;;9.40;6.10;;;;;;;;;;4988394;28;20477;-93
2022/05/04 03:45:35;;;;;;;8.70;7.30;;;;;;;;;;4982515;28;20453;-92
2022/05/04 03:48:38;;;;;;;8.63;7.23;;;;;;;;;;4981633;28;20482;-91
2022/05/04 03:51:44;;;;;;;8.10;7.33;;;;;;;;;;4992572;28;20406;-94
2022/05/04 03:54:51;;;;;;;7.10;6.60;;;;;;;;;;5181412;23;20433;-93
2022/05/04 03:57:58;;;;;;;7.23;6.73;;;;;;;;;;4979670;28;21024;-87
2022/05/04 04:01:03;;;;;;;7.30;6.70;;;;;;;;;;4981206;28;20444;-94
2022/05/04 04:04:09;;;;;;;11.83;7.73;;;;;;;;;;4980819;28;20591;-94
2022/05/04 04:07:15;;;;;;;8.73;7.93;;;;;;;;;;4965342;28;20469;-93
2022/05/04 04:10:21;;;;;;;7.30;6.57;;;;;;;;;;4943565;29;20430;-92
2022/05/04 04:13:27;;;;;;;13.13;6.00;;;;;;;;;;4965015;28;20454;-94
2022/05/04 04:16:32;;;;;;;12.30;7.20;;;;;;;;;;4949749;29;20511;-91
2022/05/04 04:19:38;;;;;;;7.80;7.10;;;;;;;;;;4948615;29;20434;-95
2022/05/04 04:22:44;;;;;;;7.07;6.40;;;;;;;;;;4951394;29;20494;-93
2022/05/04 04:25:50;;;;;;;11.00;7.10;;;;;;;;;;4951231;28;20461;-93
2022/05/04 04:28:56;;;;;;;10.83;7.60;;;;;;;;;;4938745;29;20483;-94
2022/05/04 04:32:02;;;;;;;9.93;7.37;;;;;;;;;;4953285;28;20949;-95
2022/05/04 04:35:11;;;;;;;7.43;6.77;;;;;;;;;;5238066;23;20483;-93
2022/05/04 04:38:17;;;;;;;7.83;7.03;;;;;;;;;;5100636;23;20495;-93
2022/05/04 04:41:22;;;;;;;12.13;6.80;;;;;;;;;;5017387;28;20411;-89
2022/05/04 04:44:28;;;;;;;7.50;6.63;;;;;;;;;;5018119;28;20439;-90
2022/05/04 04:47:34;;;;;;;7.27;6.57;;;;;;;;;;5021421;28;20439;-92
2022/05/04 04:50:40;;;;;;;16.87;8.07;;;;;;;;;;4994281;28;20409;-91
2022/05/04 04:53:46;;;;;;;7.63;6.93;;;;;;;;;;5063622;23;20511;-90
2022/05/04 04:59:53;;;;;;;10.43;8.03;;;;;;;;;;5084513;23;20590;-91
2022/05/04 05:02:57;;;;;;;8.67;7.57;;;;;;;;;;5024319;28;20854;-91
2022/05/04 05:06:03;;;;;;;7.00;6.30;;;;;;;;;;5029517;28;20450;-92
2022/05/04 05:09:08;;;;;;;7.00;6.32;;;;;;;;;;4661431;28;10001247;-92
2022/05/04 05:12:17;;;;;;;9.23;7.13;;;;;;;;;;5010772;28;20206;-92
2022/05/04 05:18:25;;;;;;;11.80;6.90;;;;;;;;;;5012712;28;20454;-92
2022/05/04 05:21:34;;;;;;;9.40;7.40;;;;;;;;;;4991969;28;20501;-92
2022/05/04 05:24:40;;;;;;;9.67;7.53;;;;;;;;;;5345685;23;20492;-94
2022/05/04 05:27:45;;;;;;;10.87;7.87;;;;;;;;;;4984571;28;20429;-92
2022/05/04 05:30:51;;;;;;;11.97;7.43;;;;;;;;;;4993393;28;20441;-90
2022/05/04 05:34:03;;;;;;;10.20;7.63;;;;;;;;;;5095238;23;20482;-89
2022/05/04 05:37:09;;;;;;;11.00;6.27;;;;;;;;;;5021563;28;20459;-90
2022/05/04 05:40:15;;;;;;;14.20;7.13;;;;;;;;;;5018903;28;20438;-89
2022/05/04 05:43:21;;;;;;;8.17;7.03;;;;;;;;;;5009710;28;20518;-88
2022/05/04 05:49:20;;;;;;;12.37;7.17;;;;;;;;;;5400224;23;20514;-88
2022/05/04 05:52:29;;;;;;;8.70;7.20;;;;;;;;;;5028655;28;20451;-90
2022/05/04 05:55:32;;;;;;;15.20;7.00;;;;;;;;;;5024674;28;20445;-89
2022/05/04 05:58:38;;;;;;;8.97;8.10;;;;;;;;;;5023360;28;20415;-90
2022/05/04 06:04:32;;;;;;;11.83;8.50;;;;;;;;;;5297270;23;20535;-89
2022/05/04 06:36:06;;;;;;;13.87;8.33;;;;;;;;;;4966217;28;20445;-93
2022/05/04 06:39:13;;;;;;;9.00;7.80;;;;;;;;;;4948914;29;20418;-92
2022/05/04 06:42:19;;;;;;;10.63;8.47;;;;;;;;;;4967349;28;20556;-90
2022/05/04 06:45:25;;;;;;;10.20;8.37;;;;;;;;;;4960451;28;20442;-92
2022/05/04 06:48:34;;;;;;;9.47;8.57;;;;;;;;;;4971535;28;20512;-92
2022/05/04 06:51:42;;;;;;;8.07;7.47;;;;;;;;;;4991754;28;20444;-92
2022/05/04 06:54:54;;;;;;;9.57;7.17;;;;;;;;;;5090077;23;20509;-92
2022/05/04 06:57:57;;;;;;;14.03;9.20;;;;;;;;;;5007270;28;20451;-89
2022/05/04 07:01:18;;;;;;;12.83;10.00;;;;;;;;;;4985719;28;20428;-93
2022/05/04 07:14:59;;;;;;;9.17;7.90;;;;;;;;;;4969134;28;20470;-91
2022/05/04 07:17:58;;;;;;;8.93;8.23;;;;;;;;;;4963409;29;20446;-91
2022/05/04 07:21:04;;;;;;;10.80;9.37;;;;;;;;;;4963612;28;20456;-92
2022/05/04 07:24:11;;;;;;;14.10;10.10;;;;;;;;;;4961936;28;20481;-85
2022/05/04 07:30:03;;;;;;;14.10;10.50;;;;;;;;;;5285226;23;22082;-90
2022/05/04 07:33:02;;;;;;;11.63;10.47;;;;;;;;;;5094072;23;20487;-91
2022/05/04 07:36:07;;;;;;;11.30;10.30;;;;;;;;;;5008879;28;20480;-90
2022/05/04 07:42:21;;;;;;;12.60;10.90;;;;;;;;;;5014513;28;20950;-91
2022/05/04 07:45:29;;;;;;;12.87;10.87;;;;;;;;;;5016789;28;20433;-91
2022/05/04 07:48:35;;;;;;;12.40;11.30;;;;;;;;;;5025364;28;20442;-90
2022/05/04 07:57:16;;;;;;;14.50;10.87;;;;;;;;;;5092635;23;21726;-91
2022/05/04 08:09:36;;;;;;;12.10;10.80;;;;;;;;;;5102018;23;20875;-92
2022/05/04 08:12:39;;;;;;;12.40;11.30;;;;;;;;;;5025071;28;20431;-91
2022/05/04 08:15:54;;;;;;;14.23;11.50;;;;;;;;;;5041897;28;20461;-89
2022/05/04 08:19:21;;;;;;;13.43;10.93;;;;;;;;;;5020119;28;20454;-92
2022/05/04 08:22:24;;;;;;;12.17;10.97;;;;;;;;;;5032201;23;20523;-90
2022/05/04 08:28:24;;;;;;;;;;;;;;;;;;;;;
2022/05/04 08:30:55;;;;;;;12.70;11.33;;;;;;;;;;4966388;29;20553;-90
2022/05/04 08:33:41;;;;;;;13.57;11.53;;;;;;;;;;4966736;28;20426;-90
2022/05/04 08:36:47;;;;;;;19.47;12.50;;;;;;;;;;5008150;23;20524;-88
2022/05/04 08:39:53;;;;;;;12.13;10.87;;;;;;;;;;5013231;28;20428;-87
2022/05/04 08:43:00;;;;;;;11.73;10.60;;;;;;;;;;5012790;28;20491;-88
2022/05/04 08:46:05;;;;;;;19.57;12.77;;;;;;;;;;4989481;28;20447;-87
2022/05/04 08:49:14;;;;;;;13.97;11.30;;;;;;;;;;4658575;28;10000459;-93
2022/05/04 08:52:22;;;;;;;25.03;12.00;;;;;;;;;;5012879;28;20193;-92
2022/05/04 08:55:34;;;;;;;12.93;11.00;;;;;;;;;;5014128;28;20482;-90
2022/05/04 08:58:31;;;;;;;13.80;12.30;;;;;;;;;;5009062;28;20449;-92
2022/05/04 09:01:37;;;;;;;13.50;11.40;;;;;;;;;;4999642;28;20483;-94
2022/05/04 09:04:46;;;;;;;13.77;12.40;;;;;;;;;;5010417;28;20507;-91
2022/05/04 09:07:49;;;;;;;14.00;12.60;;;;;;;;;;5010647;28;20450;-90
2022/05/04 09:10:58;;;;;;;13.60;12.50;;;;;;;;;;4993659;28;20432;-91
2022/05/04 09:14:07;;;;;;;13.83;12.53;;;;;;;;;;5007670;28;20519;-91
2022/05/04 09:17:15;;;;;;;15.10;12.57;;;;;;;;;;5021443;28;20505;-89
2022/05/04 09:23:38;;;;;;;18.83;12.50;;;;;;;;;;5011115;28;20490;-92
2022/05/04 09:26:36;;;;;;;14.23;12.50;;;;;;;;;;5022406;28;20452;-91
2022/05/04 09:29:42;;;;;;;15.30;13.60;;;;;;;;;;5008002;28;20447;-92
2022/05/04 09:32:51;;;;;;;14.63;13.33;;;;;;;;;;5013617;28;20481;-91
2022/05/04 09:35:57;;;;;;;15.80;14.50;;;;;;;;;;5016983;28;20432;-91
2022/05/04 09:48:30;;;;;;;14.60;13.20;;;;;;;;;;4979915;28;20508;-93
2022/05/04 09:51:44;;;;;;;16.30;14.30;;;;;;;;;;4983191;28;20439;-94
2022/05/04 09:54:49;;;;;;;15.63;14.13;;;;;;;;;;4994917;28;20451;-91
2022/05/04 09:57:58;;;;;;;17.47;14.10;;;;;;;;;;4999069;28;20482;-88
2022/05/04 10:01:04;;;;;;;15.37;14.00;;;;;;;;;;5013682;28;20495;-91
2022/05/04 10:04:12;;;;;;;15.07;13.57;;;;;;;;;;5009116;28;20441;-91
2022/05/04 10:07:27;;;;;;;16.67;14.57;;;;;;;;;;5018054;28;20440;-93
2022/05/04 10:13:32;;;;;;;;;;;;;;;;;;;;;
2022/05/04 10:16:37;;;;;;;17.90;14.50;;;;;;;;;;4987943;28;20488;-93
2022/05/04 10:19:48;;;;;;;20.83;14.70;;;;;;;;;;4986021;28;20421;-94
2022/05/04 10:34:57;;;;;;;15.63;14.13;;;;;;;;;;5064915;23;20239;-90
2022/05/04 10:45:51;;;;;;;17.83;16.17;;;;;;;;;;4980233;23;20508;-90
2022/05/04 10:48:56;;;;;;;19.63;17.70;;;;;;;;;;4954536;28;20458;-90
2022/05/04 10:52:02;;;;;;;20.17;18.20;;;;;;;;;;4965163;28;20441;-89
2022/05/04 10:58:18;;;;;;;16.27;14.87;;;;;;;;;;4961838;29;20430;-91
2022/05/04 11:01:33;;;;;;;18.20;16.33;;;;;;;;;;4953450;29;20476;-89
2022/05/04 11:04:39;;;;;;;21.50;15.10;;;;;;;;;;4957214;28;20870;-88
2022/05/04 11:07:56;;;;;;;16.77;15.00;;;;;;;;;;4948253;29;20455;-90
2022/05/04 11:11:02;;;;;;;16.13;14.47;;;;;;;;;;4935942;29;20514;-89
2022/05/04 11:14:08;;;;;;;18.10;14.70;;;;;;;;;;4935869;29;20435;-89
2022/05/04 11:17:16;;;;;;;21.10;19.00;;;;;;;;;;4930513;29;20470;-90
2022/05/04 11:25:34;;;;;;;20.53;18.40;;;;;;;;;;3199550;22;20574;-87
2022/05/04 11:42:57;;;;;;;18.70;17.00;;;;;;;;;;4910389;29;20513;-91
2022/05/04 11:45:40;;;;;;;20.10;17.90;;;;;;;;;;4904781;29;20462;-90
2022/05/04 11:50:54;;;;;;;19.80;17.83;;;;;;;;;;5043611;23;20478;-92
2022/05/04 11:53:21;;;;;;;19.63;17.77;;;;;;;;;;5043616;28;20433;-92
2022/05/04 11:55:59;;;;;;;19.97;17.83;;;;;;;;;;5021135;28;20424;-93
2022/05/04 12:01:31;;;;;;;18.97;17.33;;;;;;;;;;5017435;28;20505;-92
2022/05/04 12:04:33;;;;;;;;;;;;;;;;;;;;;
2022/05/04 12:23:47;;;;;;;13.87;12.93;;;;;;;;;;680278;23;20891;-90
2022/05/04 12:26:20;;;;;;;14.33;13.20;;;;;;;;;;4988456;28;20445;-91
2022/05/04 12:33:08;;;;;;;14.07;12.80;;;;;;;;;;4988368;28;20437;-90
2022/05/04 12:34:19;;;;;;;16.17;14.60;;;;;;;;;;4967725;28;20816;-89
2022/05/04 12:36:47;;;;;;;14.60;13.60;;;;;;;;;;4979046;28;20424;-91
2022/05/04 12:39:16;;;;;;;13.37;12.30;;;;;;;;;;4991433;28;20440;-91
2022/05/04 12:41:48;;;;;;;13.47;12.37;;;;;;;;;;4993569;28;20484;-89
2022/05/04 12:44:16;;;;;;;13.47;12.23;;;;;;;;;;4988641;28;20529;-90
2022/05/04 12:46:50;;;;;;;25.37;16.03;;;;;;;;;;4974772;29;20430;-91
2022/05/04 12:49:18;;;;;;;8.87;8.07;;;;;;;;;;4972855;28;20523;-90
2022/05/04 12:51:45;;;;;;;9.77;8.93;;;;;;;;;;5109904;23;20496;-91
2022/05/04 12:57:19;;;;;;;10.10;9.20;;;;;;;;;;5036403;28;20430;-90
2022/05/04 12:59:45;;;;;;;10.60;9.50;;;;;;;;;;5036339;28;20506;-90
2022/05/04 13:02:12;;;;;;;8.50;8.00;;;;;;;;;;5025711;28;20458;-88
2022/05/04 13:04:38;;;;;;;8.60;8.00;;;;;;;;;;5010665;28;20555;-89
2022/05/04 13:07:05;;;;;;;8.73;8.00;;;;;;;;;;5008390;28;20448;-89
2022/05/04 13:09:31;;;;;;;8.57;7.90;;;;;;;;;;4988965;28;20459;-87
2022/05/04 13:12:04;;;;;;;8.93;7.97;;;;;;;;;;5013043;28;20478;-87
2022/05/04 13:14:32;;;;;;;10.53;9.93;;;;;;;;;;4984933;28;20448;-88
2022/05/04 13:16:59;;;;;;;6.23;5.80;;;;;;;;;;4978505;28;20472;-87
2022/05/04 13:19:30;;;;;;;6.50;6.20;;;;;;;;;;4994956;28;20439;-90
2022/05/04 13:22:05;;;;;;;7.23;6.63;;;;;;;;;;4982905;28;20484;-88
2022/05/04 13:24:31;;;;;;;6.17;5.77;;;;;;;;;;4991669;28;20423;-87
2022/05/04 13:26:58;;;;;;;7.53;6.80;;;;;;;;;;5008704;28;20434;-89
2022/05/04 13:29:24;;;;;;;5.93;5.53;;;;;;;;;;4998708;28;20507;-89
2022/05/04 13:31:50;;;;;;;6.60;6.13;;;;;;;;;;4990927;28;20466;-89
2022/05/04 13:34:16;;;;;;;9.60;6.63;;;;;;;;;;4996309;28;20490;-89
2022/05/04 13:36:42;;;;;;;7.50;6.80;;;;;;;;;;4989697;28;20443;-89
2022/05/04 13:39:08;;;;;;;6.70;6.10;;;;;;;;;;4989256;28;20730;-90
2022/05/04 13:41:34;;;;;;;6.80;6.23;;;;;;;;;;4997189;28;20616;-90
2022/05/04 13:44:00;;;;;;;5.53;5.10;;;;;;;;;;4994565;28;20439;-89
2022/05/04 13:46:28;;;;;;;6.20;5.80;;;;;;;;;;5000675;28;20442;-89
2022/05/04 13:48:56;;;;;;;6.10;5.53;;;;;;;;;;4983949;28;20431;-89
2022/05/04 13:54:07;;;;;;;6.43;6.03;;;;;;;;;;4994561;28;20521;-89
2022/05/04 13:56:33;;;;;;;5.83;5.50;;;;;;;;;;4992454;28;20457;-88
2022/05/04 13:59:00;;;;;;;5.77;5.37;;;;;;;;;;4988478;28;20432;-89
2022/05/04 14:01:26;;;;;;;13.57;6.30;;;;;;;;;;4996538;28;20527;-88
2022/05/04 14:03:54;;;;;;;6.30;5.87;;;;;;;;;;4998094;28;20429;-88
2022/05/04 14:06:20;;;;;;;6.93;5.80;;;;;;;;;;5011669;28;20420;-90
2022/05/04 14:08:48;;;;;;;6.87;6.47;;;;;;;;;;4994977;28;20986;-89
2022/05/04 14:11:14;;;;;;;7.20;6.50;;;;;;;;;;4997792;28;20442;-91
2022/05/04 14:13:41;;;;;;;8.60;6.40;;;;;;;;;;4991175;28;20432;-89
2022/05/04 14:16:07;;;;;;;10.13;6.23;;;;;;;;;;5006991;28;20459;-90
2022/05/04 14:18:33;;;;;;;6.47;5.90;;;;;;;;;;4988147;28;20452;-88
2022/05/04 14:21:02;;;;;;;5.83;5.17;;;;;;;;;;5004014;28;20444;-88
2022/05/04 14:23:31;;;;;;;6.90;6.40;;;;;;;;;;4981957;28;20503;-91
2022/05/04 14:25:57;;;;;;;6.43;6.00;;;;;;;;;;4999458;28;20511;-90
2022/05/04 14:28:28;;;;;;;7.63;5.53;;;;;;;;;;4981946;28;20518;-91
2022/05/04 14:30:54;;;;;;;5.70;5.40;;;;;;;;;;4981645;28;20877;-88
2022/05/04 14:33:23;;;;;;;7.03;6.33;;;;;;;;;;4981109;28;20524;-90
2022/05/04 14:35:49;;;;;;;8.27;6.43;;;;;;;;;;4966554;28;20520;-88
2022/05/04 14:38:15;;;;;;;6.77;6.27;;;;;;;;;;4981755;28;20512;-88
2022/05/04 14:40:41;;;;;;;7.60;6.80;;;;;;;;;;5000092;28;20425;-89
2022/05/04 14:43:11;;;;;;;7.10;6.47;;;;;;;;;;4970509;28;20487;-87
2022/05/04 14:45:37;;;;;;;7.03;6.27;;;;;;;;;;4982761;28;20490;-88
2022/05/04 14:48:03;;;;;;;6.73;6.23;;;;;;;;;;4981509;28;21289;-89
2022/05/04 14:50:31;;;;;;;6.13;5.63;;;;;;;;;;4982829;28;20830;-88
2022/05/04 14:52:57;;;;;;;6.90;6.30;;;;;;;;;;4997544;28;21007;-88
2022/05/04 14:55:23;;;;;;;8.97;6.10;;;;;;;;;;4980230;28;20444;-89
2022/05/04 14:57:49;;;;;;;7.93;7.30;;;;;;;;;;4977832;28;20445;-89
2022/05/04 15:00:15;;;;;;;5.90;5.30;;;;;;;;;;4997922;28;20482;-88
2022/05/04 15:05:26;;;;;;;6.13;5.73;;;;;;;;;;5010431;28;20420;-89
2022/05/04 15:08:01;;;;;;;6.33;5.90;;;;;;;;;;5156787;23;20502;-90
2022/05/04 15:10:28;;;;;;;7.80;6.30;;;;;;;;;;5007088;28;20491;-90
2022/05/04 15:12:57;;;;;;;5.60;5.10;;;;;;;;;;5135275;23;20527;-90
2022/05/04 15:15:29;;;;;;;5.83;5.07;;;;;;;;;;5007616;28;20444;-90
2022/05/04 15:18:02;;;;;;;7.97;7.17;;;;;;;;;;4996679;28;20913;-91
2022/05/04 15:20:31;;;;;;;5.03;4.63;;;;;;;;;;4990858;28;20452;-89
2022/05/04 15:23:23;;;;;;;6.63;5.47;;;;;;;;;;5016424;28;20467;-90
2022/05/04 15:26:13;;;;;;;5.97;5.47;;;;;;;;;;5002763;28;20652;-89
2022/05/04 15:28:59;;;;;;;6.63;6.13;;;;;;;;;;4997723;28;20429;-91
2022/05/04 15:32:20;;;;;;;9.67;6.90;;;;;;;;;;5001982;28;20431;-94
2022/05/04 15:38:04;;;;;;;5.23;4.93;;;;;;;;;;5249527;23;20543;-92
2022/05/04 15:41:14;;;;;;;6.57;5.43;;;;;;;;;;5027304;28;20403;-91
2022/05/04 15:44:22;;;;;;;6.40;5.80;;;;;;;;;;5043411;28;20470;-91
2022/05/04 15:47:26;;;;;;;4.97;4.63;;;;;;;;;;5010174;28;20420;-89
2022/05/04 15:53:12;;;;;;;5.17;4.63;;;;;;;;;;4983036;28;21018;-90
2022/05/04 15:56:17;;;;;;;5.73;4.00;;;;;;;;;;4987235;28;20449;-92
2022/05/04 16:05:34;;;;;;;4.60;4.37;;;;;;;;;;4909628;28;20644;-91
2022/05/04 16:11:18;;;;;;;6.10;4.13;;;;;;;;;;4976000;28;20454;-91
2022/05/04 16:14:31;;;;;;;4.93;4.40;;;;;;;;;;4984877;28;20425;-89
2022/05/04 16:23:57;;;;;;;4.00;3.60;;;;;;;;;;4965717;28;20605;-89
2022/05/04 16:26:29;;;;;;;4.30;3.90;;;;;;;;;;4966497;28;20491;-92
2022/05/04 16:28:55;;;;;;;3.73;3.57;;;;;;;;;;4956064;28;20432;-89
2022/05/04 16:31:21;;;;;;;3.77;3.53;;;;;;;;;;4990047;28;20449;-90
2022/05/04 16:33:47;;;;;;;4.30;3.83;;;;;;;;;;4955428;28;20900;-89
2022/05/04 16:36:13;;;;;;;3.80;3.50;;;;;;;;;;4999097;28;20516;-90
2022/05/04 16:38:40;;;;;;;4.57;4.17;;;;;;;;;;4995918;28;20437;-88
2022/05/04 16:41:07;;;;;;;6.57;3.63;;;;;;;;;;4962531;29;20414;-88
2022/05/04 16:43:33;;;;;;;5.40;4.73;;;;;;;;;;4970253;28;20484;-89
2022/05/04 16:46:03;;;;;;;4.93;4.47;;;;;;;;;;4981752;28;20496;-90
2022/05/04 16:48:32;;;;;;;6.33;4.17;;;;;;;;;;4969744;28;20504;-90
2022/05/04 16:50:58;;;;;;;4.13;3.93;;;;;;;;;;4973364;28;20989;-90
2022/05/04 16:53:24;;;;;;;4.20;3.80;;;;;;;;;;4961450;28;20473;-89
2022/05/04 16:55:55;;;;;;;4.00;3.50;;;;;;;;;;4978098;28;20429;-89
2022/05/04 16:58:24;;;;;;;4.07;3.63;;;;;;;;;;4984576;28;20426;-90
2022/05/04 17:00:50;;;;;;;4.50;3.60;;;;;;;;;;4960457;28;20536;-88
2022/05/04 17:03:19;;;;;;;4.33;3.97;;;;;;;;;;4961779;28;20469;-88
2022/05/04 17:06:08;;;;;;;6.07;4.20;;;;;;;;;;4974762;28;20520;-89
2022/05/04 17:09:21;;;;;;;4.37;3.90;;;;;;;;;;4976980;28;20533;-90
2022/05/04 17:12:26;;;;;;;5.03;4.83;;;;;;;;;;5090211;23;20479;-91
2022/05/04 17:15:32;;;;;;;3.23;3.13;;;;;;;;;;4974295;28;20462;-89
2022/05/04 17:18:38;;;;;;;6.70;3.53;;;;;;;;;;4961997;29;20426;-90
2022/05/04 17:21:46;;;;;;;6.20;4.53;;;;;;;;;;4977066;28;21343;-88
2022/05/04 17:27:42;;;;;;;4.97;4.60;;;;;;;;;;4976751;28;20951;-91
2022/05/04 18:31:59;;;;;;;4.87;4.47;;;;;;;;;;4441229;23;20504;-86
2022/05/04 18:35:11;;;;;;;6.90;4.00;;;;;;;;;;4996227;28;20504;-91
2022/05/04 19:07:15;;;;;;;3.23;3.13;;;;;;;;;;4981611;28;20974;-86
2022/05/04 19:10:25;;;;;;;3.07;2.93;;;;;;;;;;4992644;28;20429;-90
2022/05/04 19:13:28;;;;;;;3.00;2.77;;;;;;;;;;4986605;28;20427;-88
2022/05/04 19:16:33;;;;;;;2.70;2.60;;;;;;;;;;4990845;28;20929;-91
2022/05/04 19:19:39;;;;;;;10.17;6.03;;;;;;;;;;4994430;28;20451;-91
2022/05/04 19:22:46;;;;;;;4.47;3.87;;;;;;;;;;4978273;28;20539;-91
2022/05/04 19:25:55;;;;;;;5.77;4.03;;;;;;;;;;5000350;28;20432;-90
2022/05/04 19:29:01;;;;;;;3.67;3.37;;;;;;;;;;4980653;28;20437;-89
2022/05/04 19:32:09;;;;;;;4.60;4.30;;;;;;;;;;4983912;28;20432;-92
2022/05/04 19:35:15;;;;;;;7.20;4.10;;;;;;;;;;4994395;28;20452;-89
2022/05/04 19:38:21;;;;;;;5.60;4.23;;;;;;;;;;4985415;28;20424;-88
2022/05/04 19:41:27;;;;;;;6.80;3.80;;;;;;;;;;4982336;28;20428;-90
2022/05/04 19:44:33;;;;;;;4.00;3.70;;;;;;;;;;4984078;28;20452;-91
2022/05/04 19:47:39;;;;;;;4.03;3.73;;;;;;;;;;4976763;28;20487;-90
2022/05/04 19:50:46;;;;;;;6.30;3.67;;;;;;;;;;4975064;28;20465;-90
2022/05/04 19:53:52;;;;;;;3.40;3.10;;;;;;;;;;4974345;28;20508;-89
2022/05/04 19:56:57;;;;;;;8.07;5.80;;;;;;;;;;4961317;28;20458;-89
2022/05/04 20:00:03;;;;;;;6.10;5.73;;;;;;;;;;4970977;28;20428;-90
2022/05/04 20:03:13;;;;;;;4.40;4.10;;;;;;;;;;4983816;28;20930;-90
2022/05/04 20:06:19;;;;;;;5.30;4.90;;;;;;;;;;4995892;28;20517;-89
2022/05/04 20:09:25;;;;;;;5.43;5.03;;;;;;;;;;4983902;28;20432;-90
2022/05/04 20:12:31;;;;;;;5.13;4.80;;;;;;;;;;5003600;28;20415;-90
2022/05/04 20:15:37;;;;;;;4.03;3.93;;;;;;;;;;5011134;28;20522;-85
2022/05/04 20:18:42;;;;;;;4.47;4.10;;;;;;;;;;5015199;28;20423;-88
2022/05/04 20:21:48;;;;;;;4.23;3.93;;;;;;;;;;4991909;28;20443;-89
2022/05/04 20:24:56;;;;;;;6.50;4.30;;;;;;;;;;4992245;28;20436;-89
2022/05/04 20:28:01;;;;;;;3.87;3.67;;;;;;;;;;4987881;28;20442;-88
2022/05/04 20:31:15;;;;;;;5.70;3.80;;;;;;;;;;4989718;28;20968;-88
2022/05/04 20:34:13;;;;;;;4.93;3.60;;;;;;;;;;4990540;28;20432;-89
2022/05/04 20:40:31;;;;;;;5.80;4.37;;;;;;;;;;4992024;28;20502;-89
2022/05/04 20:43:37;;;;;;;9.03;4.03;;;;;;;;;;4998618;28;20472;-89
2022/05/04 20:46:43;;;;;;;8.50;3.80;;;;;;;;;;4994417;28;20535;-91
2022/05/04 20:49:51;;;;;;;4.47;4.07;;;;;;;;;;4995061;28;20424;-89
2022/05/04 20:52:59;;;;;;;4.60;4.10;;;;;;;;;;4992019;28;20436;-91
2022/05/04 20:56:05;;;;;;;4.80;4.40;;;;;;;;;;4971013;28;20990;-91
2022/05/04 20:59:22;;;;;;;5.03;4.63;;;;;;;;;;5015219;28;21014;-88
2022/05/04 21:02:19;;;;;;;6.30;5.77;;;;;;;;;;4984118;28;20479;-90
2022/05/04 21:05:26;;;;;;;9.27;7.40;;;;;;;;;;4986979;28;20463;-90
2022/05/04 21:08:33;;;;;;;6.57;6.17;;;;;;;;;;4979689;28;20452;-90
2022/05/04 21:11:37;;;;;;;6.50;4.87;;;;;;;;;;4980009;28;21016;-89
2022/05/04 21:14:59;;;;;;;5.20;4.80;;;;;;;;;;4995035;28;20412;-90
2022/05/04 21:17:58;;;;;;;10.40;4.77;;;;;;;;;;4954961;29;20843;-90
2022/05/04 21:24:25;;;;;;;4.73;4.27;;;;;;;;;;4961238;28;20448;-90
2022/05/04 21:27:38;;;;;;;7.23;5.10;;;;;;;;;;4983366;28;20443;-89
2022/05/04 21:30:44;;;;;;;6.20;5.00;;;;;;;;;;4994166;28;20936;-89
2022/05/04 21:33:43;;;;;;;4.30;4.03;;;;;;;;;;4995646;28;20486;-89
2022/05/04 21:36:49;;;;;;;4.63;4.23;;;;;;;;;;4991309;28;20437;-90
2022/05/04 21:40:15;;;;;;;5.97;5.00;;;;;;;;;;4991129;28;20420;-90
2022/05/04 21:43:03;;;;;;;7.17;6.10;;;;;;;;;;4986071;28;20468;-89
2022/05/04 21:46:15;;;;;;;6.20;5.80;;;;;;;;;;4989866;28;20428;-90
2022/05/04 21:49:21;;;;;;;6.37;5.83;;;;;;;;;;4994664;28;20434;-90
2022/05/04 21:52:24;;;;;;;8.80;6.13;;;;;;;;;;4966598;29;20423;-88
2022/05/04 21:55:30;;;;;;;8.07;7.20;;;;;;;;;;4989192;28;20437;-88
2022/05/04 21:58:44;;;;;;;8.53;6.33;;;;;;;;;;4992779;28;20753;-90
2022/05/04 22:01:44;;;;;;;8.80;7.20;;;;;;;;;;4993738;28;20493;-90
2022/05/04 22:07:54;;;;;;;6.70;5.07;;;;;;;;;;4995517;28;20440;-90
2022/05/04 22:17:26;;;;;;;;;;;;;;;;;;;;;
2022/05/04 22:20:25;;;;;;;6.73;4.97;;;;;;;;;;4998688;28;20459;-89
2022/05/04 22:23:34;;;;;;;8.83;6.40;;;;;;;;;;4978104;28;20470;-90
2022/05/04 22:27:09;;;;;;;;;;;;;;;;;;;;;
2022/05/04 22:33:09;;;;;;;3.87;3.77;;;;;;;;;;4997556;28;20851;-90
2022/05/04 22:36:14;;;;;;;6.30;5.63;;;;;;;;;;4986192;28;20468;-90
2022/05/04 22:39:20;;;;;;;11.57;8.30;;;;;;;;;;4996005;28;20414;-90
2022/05/04 22:42:26;;;;;;;8.97;7.40;;;;;;;;;;4989315;28;20738;-89
2022/05/04 22:45:35;;;;;;;11.53;8.10;;;;;;;;;;5007209;28;20473;-90
2022/05/04 22:48:41;;;;;;;8.93;7.70;;;;;;;;;;5005259;28;20495;-90
2022/05/04 22:51:47;;;;;;;10.53;5.17;;;;;;;;;;5003711;28;20491;-90
2022/05/04 22:54:52;;;;;;;7.17;6.50;;;;;;;;;;4988142;28;20437;-90
2022/05/04 22:57:58;;;;;;;6.53;5.60;;;;;;;;;;4983132;28;20540;-90
2022/05/04 23:01:07;;;;;;;5.17;4.67;;;;;;;;;;4996274;28;20464;-91